sensor_id;sensor_type;location;lat;lon;timestamp;temperature;humidity
17774;DHT22;9011;33.236;-97.118;2022-12-07T00:01:29;17.40;99.90
17774;DHT22;9011;33.236;-97.118;2022-12-07T00:04:01;17.40;99.90
17774;DHT22;9011;33.236;-97.118;2022-12-07T00:06:32;17.40;99.90
17774;DHT22;9011;33.236;-97.118;2022-12-07T00:09:02;17.20;99.90
17774;DHT22;9011;33.236;-97.118;2022-12-07T00:11:31;17.30;99.90
17774;DHT22;9011;33.236;-97.118;2022-12-07T00:14:02;17.10;99.90
17774;DHT22;9011;33.236;-97.118;2022-12-07T00:16:33;16.90;99.90
17774;DHT22;9011;33.236;-97.118;2022-12-07T00:19:03;16.90;99.90
17774;DHT22;9011;33.236;-97.118;2022-12-07T00:21:33;16.90;99.90
17774;DHT22;9011;33.236;-97.118;2022-12-07T00:24:03;16.80;99.90
17774;DHT22;9011;33.236;-97.118;2022-12-07T00:26:33;16.80;99.90
17774;DHT22;9011;33.236;-97.118;2022-12-07T00:29:03;16.90;99.90
17774;DHT22;9011;33.236;-97.118;2022-12-07T00:31:33;16.70;99.90
17774;DHT22;9011;33.236;-97.118;2022-12-07T00:34:06;16.80;99.90
17774;DHT22;9011;33.236;-97.118;2022-12-07T00:36:35;16.60;99.90
17774;DHT22;9011;33.236;-97.118;2022-12-07T00:39:04;16.60;99.90
17774;DHT22;9011;33.236;-97.118;2022-12-07T00:41:32;16.60;99.90
17774;DHT22;9011;33.236;-97.118;2022-12-07T00:44:01;16.60;99.90
17774;DHT22;9011;33.236;-97.118;2022-12-07T00:46:30;16.50;99.90
17774;DHT22;9011;33.236;-97.118;2022-12-07T00:48:58;16.60;99.90
17774;DHT22;9011;33.236;-97.118;2022-12-07T00:51:28;16.60;99.90
17774;DHT22;9011;33.236;-97.118;2022-12-07T00:53:56;16.60;99.90
17774;DHT22;9011;33.236;-97.118;2022-12-07T00:56:26;16.60;99.90
17774;DHT22;9011;33.236;-97.118;2022-12-07T00:58:56;16.60;99.90
17774;DHT22;9011;33.236;-97.118;2022-12-07T01:01:27;16.70;99.90
17774;DHT22;9011;33.236;-97.118;2022-12-07T01:03:56;16.50;99.90
17774;DHT22;9011;33.236;-97.118;2022-12-07T01:06:25;16.50;99.90
17774;DHT22;9011;33.236;-97.118;2022-12-07T01:08:55;16.40;99.90
17774;DHT22;9011;33.236;-97.118;2022-12-07T01:11:25;16.50;99.90
17774;DHT22;9011;33.236;-97.118;2022-12-07T01:13:55;16.30;99.90
17774;DHT22;9011;33.236;-97.118;2022-12-07T01:16:25;16.40;99.90
17774;DHT22;9011;33.236;-97.118;2022-12-07T01:18:55;16.40;99.90
17774;DHT22;9011;33.236;-97.118;2022-12-07T01:21:25;16.20;99.90
17774;DHT22;9011;33.236;-97.118;2022-12-07T01:23:57;16.20;99.90
17774;DHT22;9011;33.236;-97.118;2022-12-07T01:26:25;16.20;99.90
17774;DHT22;9011;33.236;-97.118;2022-12-07T01:28:54;16.30;99.90
17774;DHT22;9011;33.236;-97.118;2022-12-07T01:31:26;16.30;99.90
17774;DHT22;9011;33.236;-97.118;2022-12-07T01:33:56;16.20;99.90
17774;DHT22;9011;33.236;-97.118;2022-12-07T01:36:26;16.10;99.90
17774;DHT22;9011;33.236;-97.118;2022-12-07T01:38:58;16.10;99.90
17774;DHT22;9011;33.236;-97.118;2022-12-07T01:41:29;16.10;99.90
17774;DHT22;9011;33.236;-97.118;2022-12-07T01:44:19;16.10;99.90
17774;DHT22;9011;33.236;-97.118;2022-12-07T01:46:49;16.10;99.90
17774;DHT22;9011;33.236;-97.118;2022-12-07T01:49:23;16.10;99.90
17774;DHT22;9011;33.236;-97.118;2022-12-07T01:51:57;16.10;99.90
17774;DHT22;9011;33.236;-97.118;2022-12-07T01:54:28;16.20;99.90
17774;DHT22;9011;33.236;-97.118;2022-12-07T01:56:57;16.10;99.90
17774;DHT22;9011;33.236;-97.118;2022-12-07T01:59:26;16.10;99.90
17774;DHT22;9011;33.236;-97.118;2022-12-07T02:01:55;16.10;99.90
17774;DHT22;9011;33.236;-97.118;2022-12-07T02:04:24;16.10;99.90
17774;DHT22;9011;33.236;-97.118;2022-12-07T02:06:53;16.10;99.90
17774;DHT22;9011;33.236;-97.118;2022-12-07T02:09:22;16.10;99.90
17774;DHT22;9011;33.236;-97.118;2022-12-07T02:11:52;16.00;99.90
17774;DHT22;9011;33.236;-97.118;2022-12-07T02:14:22;16.10;99.90
17774;DHT22;9011;33.236;-97.118;2022-12-07T02:17:04;16.00;99.90
17774;DHT22;9011;33.236;-97.118;2022-12-07T02:22:54;16.00;99.90
17774;DHT22;9011;33.236;-97.118;2022-12-07T02:25:39;16.00;99.90
17774;DHT22;9011;33.236;-97.118;2022-12-07T02:28:21;16.00;99.90
17774;DHT22;9011;33.236;-97.118;2022-12-07T02:30:58;15.90;99.90
17774;DHT22;9011;33.236;-97.118;2022-12-07T02:33:29;16.00;99.90
17774;DHT22;9011;33.236;-97.118;2022-12-07T02:36:02;15.90;99.90
17774;DHT22;9011;33.236;-97.118;2022-12-07T02:38:37;15.90;99.90
17774;DHT22;9011;33.236;-97.118;2022-12-07T02:41:09;15.80;99.90
17774;DHT22;9011;33.236;-97.118;2022-12-07T02:43:41;15.90;99.90
17774;DHT22;9011;33.236;-97.118;2022-12-07T02:46:15;15.90;99.90
17774;DHT22;9011;33.236;-97.118;2022-12-07T02:48:46;15.90;99.90
17774;DHT22;9011;33.236;-97.118;2022-12-07T02:51:19;15.90;99.90
17774;DHT22;9011;33.236;-97.118;2022-12-07T02:53:50;15.90;99.90
17774;DHT22;9011;33.236;-97.118;2022-12-07T02:56:27;15.90;99.90
17774;DHT22;9011;33.236;-97.118;2022-12-07T02:59:09;15.90;99.90
17774;DHT22;9011;33.236;-97.118;2022-12-07T03:01:55;15.80;99.90
17774;DHT22;9011;33.236;-97.118;2022-12-07T03:04:36;15.90;99.90
17774;DHT22;9011;33.236;-97.118;2022-12-07T03:07:21;15.90;99.90
17774;DHT22;9011;33.236;-97.118;2022-12-07T03:10:07;16.00;99.90
17774;DHT22;9011;33.236;-97.118;2022-12-07T03:12:53;15.90;99.90
17774;DHT22;9011;33.236;-97.118;2022-12-07T03:15:55;15.80;99.90
17774;DHT22;9011;33.236;-97.118;2022-12-07T03:18:35;15.80;99.90
17774;DHT22;9011;33.236;-97.118;2022-12-07T03:21:23;15.70;99.90
17774;DHT22;9011;33.236;-97.118;2022-12-07T03:24:31;15.60;99.90
17774;DHT22;9011;33.236;-97.118;2022-12-07T03:27:22;15.60;99.90
17774;DHT22;9011;33.236;-97.118;2022-12-07T03:29:55;15.50;99.90
17774;DHT22;9011;33.236;-97.118;2022-12-07T03:32:30;15.60;99.90
17774;DHT22;9011;33.236;-97.118;2022-12-07T03:35:20;15.50;99.90
17774;DHT22;9011;33.236;-97.118;2022-12-07T03:37:57;15.40;99.90
17774;DHT22;9011;33.236;-97.118;2022-12-07T03:40:33;15.40;99.90
17774;DHT22;9011;33.236;-97.118;2022-12-07T03:43:03;15.40;99.90
17774;DHT22;9011;33.236;-97.118;2022-12-07T03:45:37;15.40;99.90
17774;DHT22;9011;33.236;-97.118;2022-12-07T03:48:10;15.30;99.90
17774;DHT22;9011;33.236;-97.118;2022-12-07T03:50:47;15.40;99.90
17774;DHT22;9011;33.236;-97.118;2022-12-07T03:53:20;15.30;99.90
17774;DHT22;9011;33.236;-97.118;2022-12-07T03:55:51;15.20;99.90
17774;DHT22;9011;33.236;-97.118;2022-12-07T03:58:22;15.20;99.90
17774;DHT22;9011;33.236;-97.118;2022-12-07T04:00:51;15.10;99.90
17774;DHT22;9011;33.236;-97.118;2022-12-07T04:03:20;15.00;99.90
17774;DHT22;9011;33.236;-97.118;2022-12-07T04:05:50;15.10;99.90
17774;DHT22;9011;33.236;-97.118;2022-12-07T04:08:18;14.90;99.90
17774;DHT22;9011;33.236;-97.118;2022-12-07T04:10:47;14.90;99.90
17774;DHT22;9011;33.236;-97.118;2022-12-07T04:13:16;15.00;99.90
17774;DHT22;9011;33.236;-97.118;2022-12-07T04:15:44;15.00;99.90
17774;DHT22;9011;33.236;-97.118;2022-12-07T04:18:12;15.10;99.90
17774;DHT22;9011;33.236;-97.118;2022-12-07T04:20:41;15.00;99.90
17774;DHT22;9011;33.236;-97.118;2022-12-07T04:23:11;15.00;99.90
17774;DHT22;9011;33.236;-97.118;2022-12-07T04:25:39;15.00;99.90
17774;DHT22;9011;33.236;-97.118;2022-12-07T04:28:08;14.90;99.90
17774;DHT22;9011;33.236;-97.118;2022-12-07T04:30:36;14.90;99.90
17774;DHT22;9011;33.236;-97.118;2022-12-07T04:33:04;14.80;99.90
17774;DHT22;9011;33.236;-97.118;2022-12-07T04:35:33;14.90;99.90
17774;DHT22;9011;33.236;-97.118;2022-12-07T04:38:02;14.80;99.90
17774;DHT22;9011;33.236;-97.118;2022-12-07T04:40:32;14.80;99.90
17774;DHT22;9011;33.236;-97.118;2022-12-07T04:43:00;14.80;99.90
17774;DHT22;9011;33.236;-97.118;2022-12-07T04:45:28;14.90;99.90
17774;DHT22;9011;33.236;-97.118;2022-12-07T04:47:57;14.80;99.90
17774;DHT22;9011;33.236;-97.118;2022-12-07T04:50:25;14.90;99.90
17774;DHT22;9011;33.236;-97.118;2022-12-07T04:52:53;14.80;99.90
17774;DHT22;9011;33.236;-97.118;2022-12-07T04:55:22;14.70;99.90
17774;DHT22;9011;33.236;-97.118;2022-12-07T04:57:52;14.70;99.90
17774;DHT22;9011;33.236;-97.118;2022-12-07T05:00:20;14.80;99.90
17774;DHT22;9011;33.236;-97.118;2022-12-07T05:02:49;14.70;99.90
17774;DHT22;9011;33.236;-97.118;2022-12-07T05:05:17;14.60;99.90
17774;DHT22;9011;33.236;-97.118;2022-12-07T05:07:45;14.60;99.90
17774;DHT22;9011;33.236;-97.118;2022-12-07T05:10:14;14.70;99.90
17774;DHT22;9011;33.236;-97.118;2022-12-07T05:12:42;14.60;99.90
17774;DHT22;9011;33.236;-97.118;2022-12-07T05:15:13;14.60;99.90
17774;DHT22;9011;33.236;-97.118;2022-12-07T05:17:42;14.50;99.90
17774;DHT22;9011;33.236;-97.118;2022-12-07T05:20:11;14.50;99.90
17774;DHT22;9011;33.236;-97.118;2022-12-07T05:22:39;14.60;99.90
17774;DHT22;9011;33.236;-97.118;2022-12-07T05:25:08;14.60;99.90
17774;DHT22;9011;33.236;-97.118;2022-12-07T05:27:37;14.50;99.90
17774;DHT22;9011;33.236;-97.118;2022-12-07T05:30:09;14.40;99.90
17774;DHT22;9011;33.236;-97.118;2022-12-07T05:32:52;14.40;99.90
17774;DHT22;9011;33.236;-97.118;2022-12-07T05:36:11;14.30;99.90
17774;DHT22;9011;33.236;-97.118;2022-12-07T05:39:09;14.30;99.90
17774;DHT22;9011;33.236;-97.118;2022-12-07T05:41:43;14.30;99.90
17774;DHT22;9011;33.236;-97.118;2022-12-07T05:44:28;14.20;99.90
17774;DHT22;9011;33.236;-97.118;2022-12-07T05:46:56;14.20;99.90
17774;DHT22;9011;33.236;-97.118;2022-12-07T05:49:27;14.10;99.90
17774;DHT22;9011;33.236;-97.118;2022-12-07T05:51:56;14.10;99.90
17774;DHT22;9011;33.236;-97.118;2022-12-07T05:54:24;14.20;99.90
17774;DHT22;9011;33.236;-97.118;2022-12-07T05:56:53;14.20;99.90
17774;DHT22;9011;33.236;-97.118;2022-12-07T05:59:23;14.10;99.90
17774;DHT22;9011;33.236;-97.118;2022-12-07T06:01:51;14.20;99.90
17774;DHT22;9011;33.236;-97.118;2022-12-07T06:04:21;14.20;99.90
17774;DHT22;9011;33.236;-97.118;2022-12-07T06:06:56;14.10;99.90
17774;DHT22;9011;33.236;-97.118;2022-12-07T06:09:26;14.20;99.90
17774;DHT22;9011;33.236;-97.118;2022-12-07T06:11:55;14.20;99.90
17774;DHT22;9011;33.236;-97.118;2022-12-07T06:14:43;14.10;99.90
17774;DHT22;9011;33.236;-97.118;2022-12-07T06:17:12;14.00;99.90
17774;DHT22;9011;33.236;-97.118;2022-12-07T06:19:41;14.00;99.90
17774;DHT22;9011;33.236;-97.118;2022-12-07T06:22:12;13.90;99.90
17774;DHT22;9011;33.236;-97.118;2022-12-07T06:24:42;13.90;99.90
17774;DHT22;9011;33.236;-97.118;2022-12-07T06:27:11;13.90;99.90
17774;DHT22;9011;33.236;-97.118;2022-12-07T06:29:39;14.00;99.90
17774;DHT22;9011;33.236;-97.118;2022-12-07T06:32:08;13.80;99.90
17774;DHT22;9011;33.236;-97.118;2022-12-07T06:34:37;13.90;99.90
17774;DHT22;9011;33.236;-97.118;2022-12-07T06:37:05;13.90;99.90
17774;DHT22;9011;33.236;-97.118;2022-12-07T06:39:35;13.80;99.90
17774;DHT22;9011;33.236;-97.118;2022-12-07T06:42:05;13.70;99.90
17774;DHT22;9011;33.236;-97.118;2022-12-07T06:44:33;13.70;99.90
17774;DHT22;9011;33.236;-97.118;2022-12-07T06:47:03;13.80;99.90
17774;DHT22;9011;33.236;-97.118;2022-12-07T06:49:32;13.70;99.90
17774;DHT22;9011;33.236;-97.118;2022-12-07T06:52:00;13.70;99.90
17774;DHT22;9011;33.236;-97.118;2022-12-07T06:54:28;13.60;99.90
17774;DHT22;9011;33.236;-97.118;2022-12-07T06:56:58;13.60;99.90
17774;DHT22;9011;33.236;-97.118;2022-12-07T06:59:27;13.60;99.90
17774;DHT22;9011;33.236;-97.118;2022-12-07T07:01:55;13.70;99.90
17774;DHT22;9011;33.236;-97.118;2022-12-07T07:04:25;13.70;99.90
17774;DHT22;9011;33.236;-97.118;2022-12-07T07:06:53;13.70;99.90
17774;DHT22;9011;33.236;-97.118;2022-12-07T07:09:22;13.60;99.90
17774;DHT22;9011;33.236;-97.118;2022-12-07T07:11:50;13.40;99.90
17774;DHT22;9011;33.236;-97.118;2022-12-07T07:14:20;13.50;99.90
17774;DHT22;9011;33.236;-97.118;2022-12-07T07:16:48;13.60;99.90
17774;DHT22;9011;33.236;-97.118;2022-12-07T07:19:17;13.50;99.90
17774;DHT22;9011;33.236;-97.118;2022-12-07T07:21:45;13.40;99.90
17774;DHT22;9011;33.236;-97.118;2022-12-07T07:24:14;13.50;99.90
17774;DHT22;9011;33.236;-97.118;2022-12-07T07:26:43;13.40;99.90
17774;DHT22;9011;33.236;-97.118;2022-12-07T07:29:11;13.40;99.90
17774;DHT22;9011;33.236;-97.118;2022-12-07T07:31:41;13.40;99.90
17774;DHT22;9011;33.236;-97.118;2022-12-07T07:34:10;13.40;99.90
17774;DHT22;9011;33.236;-97.118;2022-12-07T07:36:38;13.50;99.90
17774;DHT22;9011;33.236;-97.118;2022-12-07T07:39:10;13.50;99.90
17774;DHT22;9011;33.236;-97.118;2022-12-07T07:41:39;13.50;99.90
17774;DHT22;9011;33.236;-97.118;2022-12-07T07:44:08;13.50;99.90
17774;DHT22;9011;33.236;-97.118;2022-12-07T07:46:37;13.50;99.90
17774;DHT22;9011;33.236;-97.118;2022-12-07T07:49:08;13.60;99.90
17774;DHT22;9011;33.236;-97.118;2022-12-07T07:51:37;13.60;99.90
17774;DHT22;9011;33.236;-97.118;2022-12-07T07:54:05;13.60;99.90
17774;DHT22;9011;33.236;-97.118;2022-12-07T07:56:36;13.50;99.90
17774;DHT22;9011;33.236;-97.118;2022-12-07T07:59:04;13.40;99.90
17774;DHT22;9011;33.236;-97.118;2022-12-07T08:01:34;13.30;99.90
17774;DHT22;9011;33.236;-97.118;2022-12-07T08:04:02;13.30;99.90
17774;DHT22;9011;33.236;-97.118;2022-12-07T08:06:32;13.30;99.90
17774;DHT22;9011;33.236;-97.118;2022-12-07T08:09:01;13.30;99.90
17774;DHT22;9011;33.236;-97.118;2022-12-07T08:11:31;13.30;99.90
17774;DHT22;9011;33.236;-97.118;2022-12-07T08:14:00;13.30;99.90
17774;DHT22;9011;33.236;-97.118;2022-12-07T08:16:28;13.40;99.90
17774;DHT22;9011;33.236;-97.118;2022-12-07T08:18:57;13.40;99.90
17774;DHT22;9011;33.236;-97.118;2022-12-07T08:21:25;13.40;99.90
17774;DHT22;9011;33.236;-97.118;2022-12-07T08:23:55;13.40;99.90
17774;DHT22;9011;33.236;-97.118;2022-12-07T08:26:25;13.40;99.90
17774;DHT22;9011;33.236;-97.118;2022-12-07T08:28:54;13.50;99.90
17774;DHT22;9011;33.236;-97.118;2022-12-07T08:31:23;13.50;99.90
17774;DHT22;9011;33.236;-97.118;2022-12-07T08:33:52;13.50;99.90
17774;DHT22;9011;33.236;-97.118;2022-12-07T08:36:20;13.40;99.90
17774;DHT22;9011;33.236;-97.118;2022-12-07T08:38:49;13.50;99.90
17774;DHT22;9011;33.236;-97.118;2022-12-07T08:41:19;13.40;99.90
17774;DHT22;9011;33.236;-97.118;2022-12-07T08:43:48;13.40;99.90
17774;DHT22;9011;33.236;-97.118;2022-12-07T08:46:19;13.30;99.90
17774;DHT22;9011;33.236;-97.118;2022-12-07T08:48:51;13.20;99.90
17774;DHT22;9011;33.236;-97.118;2022-12-07T08:51:21;13.20;99.90
17774;DHT22;9011;33.236;-97.118;2022-12-07T08:53:51;13.30;99.90
17774;DHT22;9011;33.236;-97.118;2022-12-07T08:56:22;13.30;99.90
17774;DHT22;9011;33.236;-97.118;2022-12-07T08:58:50;13.20;99.90
17774;DHT22;9011;33.236;-97.118;2022-12-07T09:01:19;13.20;99.90
17774;DHT22;9011;33.236;-97.118;2022-12-07T09:03:47;13.20;99.90
17774;DHT22;9011;33.236;-97.118;2022-12-07T09:06:15;13.20;99.90
17774;DHT22;9011;33.236;-97.118;2022-12-07T09:08:46;13.10;99.90
17774;DHT22;9011;33.236;-97.118;2022-12-07T09:11:16;13.10;99.90
17774;DHT22;9011;33.236;-97.118;2022-12-07T09:13:46;13.20;99.90
17774;DHT22;9011;33.236;-97.118;2022-12-07T09:16:14;13.20;99.90
17774;DHT22;9011;33.236;-97.118;2022-12-07T09:18:43;13.20;99.90
17774;DHT22;9011;33.236;-97.118;2022-12-07T09:21:11;13.20;99.90
17774;DHT22;9011;33.236;-97.118;2022-12-07T09:23:42;13.30;99.90
17774;DHT22;9011;33.236;-97.118;2022-12-07T09:26:11;13.10;99.90
17774;DHT22;9011;33.236;-97.118;2022-12-07T09:28:40;13.10;99.90
17774;DHT22;9011;33.236;-97.118;2022-12-07T09:31:14;13.20;99.90
17774;DHT22;9011;33.236;-97.118;2022-12-07T09:33:42;13.20;99.90
17774;DHT22;9011;33.236;-97.118;2022-12-07T09:36:11;13.10;99.90
17774;DHT22;9011;33.236;-97.118;2022-12-07T09:38:39;13.10;99.90
17774;DHT22;9011;33.236;-97.118;2022-12-07T09:41:08;13.10;99.90
17774;DHT22;9011;33.236;-97.118;2022-12-07T09:43:39;13.10;99.90
17774;DHT22;9011;33.236;-97.118;2022-12-07T09:46:13;13.10;99.90
17774;DHT22;9011;33.236;-97.118;2022-12-07T09:48:43;13.20;99.90
17774;DHT22;9011;33.236;-97.118;2022-12-07T09:51:15;13.20;99.90
17774;DHT22;9011;33.236;-97.118;2022-12-07T09:53:45;13.20;99.90
17774;DHT22;9011;33.236;-97.118;2022-12-07T09:56:13;13.20;99.90
17774;DHT22;9011;33.236;-97.118;2022-12-07T09:58:43;13.00;99.90
17774;DHT22;9011;33.236;-97.118;2022-12-07T10:01:16;13.00;99.90
17774;DHT22;9011;33.236;-97.118;2022-12-07T10:03:50;13.10;99.90
17774;DHT22;9011;33.236;-97.118;2022-12-07T10:06:19;12.90;99.90
17774;DHT22;9011;33.236;-97.118;2022-12-07T10:08:48;12.90;99.90
17774;DHT22;9011;33.236;-97.118;2022-12-07T10:11:16;12.90;99.90
17774;DHT22;9011;33.236;-97.118;2022-12-07T10:13:47;12.90;99.90
17774;DHT22;9011;33.236;-97.118;2022-12-07T10:16:39;12.90;99.90
17774;DHT22;9011;33.236;-97.118;2022-12-07T10:19:28;12.90;99.90
17774;DHT22;9011;33.236;-97.118;2022-12-07T10:22:07;12.80;99.90
17774;DHT22;9011;33.236;-97.118;2022-12-07T10:24:37;12.70;99.90
17774;DHT22;9011;33.236;-97.118;2022-12-07T10:27:18;12.70;99.90
17774;DHT22;9011;33.236;-97.118;2022-12-07T10:29:49;12.80;99.90
17774;DHT22;9011;33.236;-97.118;2022-12-07T10:32:32;12.80;99.90
17774;DHT22;9011;33.236;-97.118;2022-12-07T10:35:22;12.70;99.90
17774;DHT22;9011;33.236;-97.118;2022-12-07T10:37:52;12.80;99.90
17774;DHT22;9011;33.236;-97.118;2022-12-07T10:40:30;12.70;99.90
17774;DHT22;9011;33.236;-97.118;2022-12-07T10:43:04;12.80;99.90
17774;DHT22;9011;33.236;-97.118;2022-12-07T10:45:34;12.80;99.90
17774;DHT22;9011;33.236;-97.118;2022-12-07T10:48:09;12.80;99.90
17774;DHT22;9011;33.236;-97.118;2022-12-07T10:50:51;12.80;99.90
17774;DHT22;9011;33.236;-97.118;2022-12-07T10:53:47;12.80;99.90
17774;DHT22;9011;33.236;-97.118;2022-12-07T10:56:29;12.90;99.90
17774;DHT22;9011;33.236;-97.118;2022-12-07T10:59:19;12.90;99.90
17774;DHT22;9011;33.236;-97.118;2022-12-07T11:01:53;12.80;99.90
17774;DHT22;9011;33.236;-97.118;2022-12-07T11:08:51;12.70;99.90
17774;DHT22;9011;33.236;-97.118;2022-12-07T11:11:32;12.60;99.90
17774;DHT22;9011;33.236;-97.118;2022-12-07T11:14:10;12.60;99.90
17774;DHT22;9011;33.236;-97.118;2022-12-07T11:16:55;12.60;99.90
17774;DHT22;9011;33.236;-97.118;2022-12-07T11:19:50;12.50;99.90
17774;DHT22;9011;33.236;-97.118;2022-12-07T11:22:31;12.60;99.90
17774;DHT22;9011;33.236;-97.118;2022-12-07T11:25:20;12.50;99.90
17774;DHT22;9011;33.236;-97.118;2022-12-07T11:28:06;12.50;99.90
17774;DHT22;9011;33.236;-97.118;2022-12-07T11:30:47;12.60;99.90
17774;DHT22;9011;33.236;-97.118;2022-12-07T11:33:22;12.60;99.90
17774;DHT22;9011;33.236;-97.118;2022-12-07T11:36:02;12.60;99.90
17774;DHT22;9011;33.236;-97.118;2022-12-07T11:38:41;12.60;99.90
17774;DHT22;9011;33.236;-97.118;2022-12-07T11:41:13;12.70;99.90
17774;DHT22;9011;33.236;-97.118;2022-12-07T11:43:55;12.70;99.90
17774;DHT22;9011;33.236;-97.118;2022-12-07T11:46:27;12.60;99.90
17774;DHT22;9011;33.236;-97.118;2022-12-07T11:49:03;12.70;99.90
17774;DHT22;9011;33.236;-97.118;2022-12-07T11:51:38;12.50;99.90
17774;DHT22;9011;33.236;-97.118;2022-12-07T11:54:14;12.60;99.90
17774;DHT22;9011;33.236;-97.118;2022-12-07T11:56:48;12.50;99.90
17774;DHT22;9011;33.236;-97.118;2022-12-07T11:59:23;12.50;99.90
17774;DHT22;9011;33.236;-97.118;2022-12-07T12:01:58;12.40;99.90
17774;DHT22;9011;33.236;-97.118;2022-12-07T12:04:34;12.40;99.90
17774;DHT22;9011;33.236;-97.118;2022-12-07T12:07:07;12.40;99.90
17774;DHT22;9011;33.236;-97.118;2022-12-07T12:09:45;12.50;99.90
17774;DHT22;9011;33.236;-97.118;2022-12-07T12:12:30;12.50;99.90
17774;DHT22;9011;33.236;-97.118;2022-12-07T12:15:14;12.50;99.90
17774;DHT22;9011;33.236;-97.118;2022-12-07T12:18:14;12.60;99.90
17774;DHT22;9011;33.236;-97.118;2022-12-07T12:20:50;12.60;99.90
17774;DHT22;9011;33.236;-97.118;2022-12-07T12:23:21;12.60;99.90
17774;DHT22;9011;33.236;-97.118;2022-12-07T12:25:53;12.70;99.90
17774;DHT22;9011;33.236;-97.118;2022-12-07T12:28:30;12.70;99.90
17774;DHT22;9011;33.236;-97.118;2022-12-07T12:31:11;12.70;99.90
17774;DHT22;9011;33.236;-97.118;2022-12-07T12:33:44;12.70;99.90
17774;DHT22;9011;33.236;-97.118;2022-12-07T12:36:22;12.80;99.90
17774;DHT22;9011;33.236;-97.118;2022-12-07T12:39:07;12.80;99.90
17774;DHT22;9011;33.236;-97.118;2022-12-07T12:41:59;12.70;99.90
17774;DHT22;9011;33.236;-97.118;2022-12-07T12:47:43;12.80;99.90
17774;DHT22;9011;33.236;-97.118;2022-12-07T12:50:23;12.80;99.90
17774;DHT22;9011;33.236;-97.118;2022-12-07T12:53:04;12.80;99.90
17774;DHT22;9011;33.236;-97.118;2022-12-07T12:58:42;12.90;99.90
17774;DHT22;9011;33.236;-97.118;2022-12-07T13:01:47;12.90;99.90
17774;DHT22;9011;33.236;-97.118;2022-12-07T13:07:51;13.00;99.90
17774;DHT22;9011;33.236;-97.118;2022-12-07T13:10:39;12.90;99.90
17774;DHT22;9011;33.236;-97.118;2022-12-07T13:13:34;12.90;99.90
17774;DHT22;9011;33.236;-97.118;2022-12-07T13:16:38;13.00;99.90
17774;DHT22;9011;33.236;-97.118;2022-12-07T13:22:48;13.00;99.90
17774;DHT22;9011;33.236;-97.118;2022-12-07T13:25:29;12.90;99.90
17774;DHT22;9011;33.236;-97.118;2022-12-07T13:28:02;12.90;99.90
17774;DHT22;9011;33.236;-97.118;2022-12-07T13:30:31;12.90;99.90
17774;DHT22;9011;33.236;-97.118;2022-12-07T13:33:00;12.90;99.90
17774;DHT22;9011;33.236;-97.118;2022-12-07T13:35:30;12.90;99.90
17774;DHT22;9011;33.236;-97.118;2022-12-07T13:38:02;12.90;99.90
17774;DHT22;9011;33.236;-97.118;2022-12-07T13:40:32;12.90;99.90
17774;DHT22;9011;33.236;-97.118;2022-12-07T13:43:03;12.70;99.90
17774;DHT22;9011;33.236;-97.118;2022-12-07T13:45:33;12.80;99.90
17774;DHT22;9011;33.236;-97.118;2022-12-07T13:48:22;12.80;99.90
17774;DHT22;9011;33.236;-97.118;2022-12-07T13:50:56;12.80;99.90
17774;DHT22;9011;33.236;-97.118;2022-12-07T13:53:26;12.70;99.90
17774;DHT22;9011;33.236;-97.118;2022-12-07T13:55:57;12.70;99.90
17774;DHT22;9011;33.236;-97.118;2022-12-07T13:58:26;12.80;99.90
17774;DHT22;9011;33.236;-97.118;2022-12-07T14:00:55;12.80;99.90
17774;DHT22;9011;33.236;-97.118;2022-12-07T14:03:32;12.80;99.90
17774;DHT22;9011;33.236;-97.118;2022-12-07T14:06:19;12.90;99.90
17774;DHT22;9011;33.236;-97.118;2022-12-07T14:08:49;13.00;99.90
17774;DHT22;9011;33.236;-97.118;2022-12-07T14:11:19;12.90;99.90
17774;DHT22;9011;33.236;-97.118;2022-12-07T14:13:56;13.00;99.90
17774;DHT22;9011;33.236;-97.118;2022-12-07T14:16:27;13.00;99.90
17774;DHT22;9011;33.236;-97.118;2022-12-07T14:18:58;13.00;99.90
17774;DHT22;9011;33.236;-97.118;2022-12-07T14:21:28;13.00;99.90
17774;DHT22;9011;33.236;-97.118;2022-12-07T14:24:14;12.90;99.90
17774;DHT22;9011;33.236;-97.118;2022-12-07T14:26:43;12.90;99.90
17774;DHT22;9011;33.236;-97.118;2022-12-07T14:29:32;12.90;99.90
17774;DHT22;9011;33.236;-97.118;2022-12-07T14:32:19;13.00;99.90
17774;DHT22;9011;33.236;-97.118;2022-12-07T14:34:56;12.90;99.90
17774;DHT22;9011;33.236;-97.118;2022-12-07T14:37:25;13.00;99.90
17774;DHT22;9011;33.236;-97.118;2022-12-07T14:39:56;13.00;99.90
17774;DHT22;9011;33.236;-97.118;2022-12-07T14:42:28;13.00;99.90
17774;DHT22;9011;33.236;-97.118;2022-12-07T14:44:58;13.10;99.90
17774;DHT22;9011;33.236;-97.118;2022-12-07T14:47:26;13.20;99.90
17774;DHT22;9011;33.236;-97.118;2022-12-07T14:49:55;13.30;99.90
17774;DHT22;9011;33.236;-97.118;2022-12-07T14:52:26;13.30;99.90
17774;DHT22;9011;33.236;-97.118;2022-12-07T14:54:58;13.40;99.90
17774;DHT22;9011;33.236;-97.118;2022-12-07T14:57:26;13.40;99.90
17774;DHT22;9011;33.236;-97.118;2022-12-07T14:59:55;13.40;99.90
17774;DHT22;9011;33.236;-97.118;2022-12-07T15:02:23;13.50;99.90
17774;DHT22;9011;33.236;-97.118;2022-12-07T15:04:51;13.50;99.90
17774;DHT22;9011;33.236;-97.118;2022-12-07T15:07:20;13.50;99.90
17774;DHT22;9011;33.236;-97.118;2022-12-07T15:09:50;13.60;99.90
17774;DHT22;9011;33.236;-97.118;2022-12-07T15:12:19;13.70;99.90
17774;DHT22;9011;33.236;-97.118;2022-12-07T15:14:48;13.70;99.90
17774;DHT22;9011;33.236;-97.118;2022-12-07T15:17:16;13.80;99.90
17774;DHT22;9011;33.236;-97.118;2022-12-07T15:19:44;13.90;99.90
17774;DHT22;9011;33.236;-97.118;2022-12-07T15:22:13;13.90;99.90
17774;DHT22;9011;33.236;-97.118;2022-12-07T15:24:41;14.00;99.90
17774;DHT22;9011;33.236;-97.118;2022-12-07T15:27:09;14.10;99.90
17774;DHT22;9011;33.236;-97.118;2022-12-07T15:29:39;14.20;99.90
17774;DHT22;9011;33.236;-97.118;2022-12-07T15:32:08;14.20;99.90
17774;DHT22;9011;33.236;-97.118;2022-12-07T15:34:36;14.30;99.90
17774;DHT22;9011;33.236;-97.118;2022-12-07T15:37:04;14.30;99.90
17774;DHT22;9011;33.236;-97.118;2022-12-07T15:39:33;14.40;99.90
17774;DHT22;9011;33.236;-97.118;2022-12-07T15:42:01;14.40;99.90
17774;DHT22;9011;33.236;-97.118;2022-12-07T15:44:30;14.30;99.90
17774;DHT22;9011;33.236;-97.118;2022-12-07T15:47:17;14.40;99.90
17774;DHT22;9011;33.236;-97.118;2022-12-07T15:49:45;14.50;99.90
17774;DHT22;9011;33.236;-97.118;2022-12-07T15:52:13;14.50;99.90
17774;DHT22;9011;33.236;-97.118;2022-12-07T15:54:42;14.40;99.90
17774;DHT22;9011;33.236;-97.118;2022-12-07T15:57:10;14.30;99.90
17774;DHT22;9011;33.236;-97.118;2022-12-07T15:59:39;14.30;99.90
17774;DHT22;9011;33.236;-97.118;2022-12-07T16:02:08;14.40;99.90
17774;DHT22;9011;33.236;-97.118;2022-12-07T16:04:39;14.40;99.90
17774;DHT22;9011;33.236;-97.118;2022-12-07T16:07:08;14.50;99.90
17774;DHT22;9011;33.236;-97.118;2022-12-07T16:09:37;14.60;99.90
17774;DHT22;9011;33.236;-97.118;2022-12-07T16:12:06;14.60;99.90